sensor_id;sensor_type;location;lat;lon;timestamp;P1;durP1;ratioP1;P2;durP2;ratioP2
980;SDS011;479;53.514;9.994;2023-04-01T00:01:29;4.47;;;3.37;;
980;SDS011;479;53.514;9.994;2023-04-01T00:03:56;7.73;;;3.70;;
980;SDS011;479;53.514;9.994;2023-04-01T00:06:23;5.97;;;4.07;;
980;SDS011;479;53.514;9.994;2023-04-01T00:08:49;9.43;;;5.70;;
980;SDS011;479;53.514;9.994;2023-04-01T00:11:17;4.87;;;4.20;;
980;SDS011;479;53.514;9.994;2023-04-01T00:13:44;5.37;;;4.83;;
980;SDS011;479;53.514;9.994;2023-04-01T00:16:13;3.30;;;2.90;;
980;SDS011;479;53.514;9.994;2023-04-01T00:18:40;4.37;;;3.80;;
980;SDS011;479;53.514;9.994;2023-04-01T00:21:07;3.83;;;3.27;;
980;SDS011;479;53.514;9.994;2023-04-01T00:23:34;5.80;;;4.20;;
980;SDS011;479;53.514;9.994;2023-04-01T00:26:01;5.90;;;3.80;;
980;SDS011;479;53.514;9.994;2023-04-01T00:28:29;7.20;;;4.43;;
980;SDS011;479;53.514;9.994;2023-04-01T00:30:56;4.67;;;4.23;;
980;SDS011;479;53.514;9.994;2023-04-01T00:33:25;4.20;;;3.73;;
980;SDS011;479;53.514;9.994;2023-04-01T00:35:53;4.60;;;3.63;;
980;SDS011;479;53.514;9.994;2023-04-01T00:38:19;5.50;;;3.00;;
980;SDS011;479;53.514;9.994;2023-04-01T00:40:46;6.47;;;3.90;;
980;SDS011;479;53.514;9.994;2023-04-01T00:43:15;7.47;;;4.00;;
980;SDS011;479;53.514;9.994;2023-04-01T00:45:44;4.37;;;3.97;;
980;SDS011;479;53.514;9.994;2023-04-01T00:48:13;7.90;;;4.50;;
980;SDS011;479;53.514;9.994;2023-04-01T00:50:43;5.67;;;3.63;;
980;SDS011;479;53.514;9.994;2023-04-01T00:53:14;6.23;;;3.80;;
980;SDS011;479;53.514;9.994;2023-04-01T00:55:42;5.47;;;3.83;;
980;SDS011;479;53.514;9.994;2023-04-01T00:58:15;4.43;;;4.03;;
980;SDS011;479;53.514;9.994;2023-04-01T01:00:45;7.57;;;3.40;;
980;SDS011;479;53.514;9.994;2023-04-01T01:03:15;4.23;;;3.53;;
980;SDS011;479;53.514;9.994;2023-04-01T01:05:48;3.00;;;2.80;;
980;SDS011;479;53.514;9.994;2023-04-01T01:08:28;4.90;;;3.30;;
980;SDS011;479;53.514;9.994;2023-04-01T01:11:02;5.80;;;4.30;;
980;SDS011;479;53.514;9.994;2023-04-01T01:13:36;4.33;;;3.40;;
980;SDS011;479;53.514;9.994;2023-04-01T01:16:10;5.23;;;3.50;;
980;SDS011;479;53.514;9.994;2023-04-01T01:18:45;3.50;;;3.10;;
980;SDS011;479;53.514;9.994;2023-04-01T01:24:26;3.50;;;3.10;;
980;SDS011;479;53.514;9.994;2023-04-01T01:27:04;5.27;;;3.60;;
980;SDS011;479;53.514;9.994;2023-04-01T01:29:46;5.17;;;3.70;;
980;SDS011;479;53.514;9.994;2023-04-01T01:35:48;3.93;;;3.50;;
980;SDS011;479;53.514;9.994;2023-04-01T01:38:19;5.80;;;3.80;;
980;SDS011;479;53.514;9.994;2023-04-01T01:40:59;4.70;;;3.50;;
980;SDS011;479;53.514;9.994;2023-04-01T01:43:29;4.40;;;3.10;;
980;SDS011;479;53.514;9.994;2023-04-01T01:46:00;4.83;;;3.20;;
980;SDS011;479;53.514;9.994;2023-04-01T01:48:30;3.97;;;3.50;;
980;SDS011;479;53.514;9.994;2023-04-01T01:51:01;4.40;;;3.17;;
980;SDS011;479;53.514;9.994;2023-04-01T01:53:29;3.07;;;2.83;;
980;SDS011;479;53.514;9.994;2023-04-01T01:55:56;4.00;;;3.10;;
980;SDS011;479;53.514;9.994;2023-04-01T01:58:25;4.10;;;2.90;;
980;SDS011;479;53.514;9.994;2023-04-01T02:00:55;6.13;;;4.17;;
980;SDS011;479;53.514;9.994;2023-04-01T02:03:25;4.80;;;3.57;;
980;SDS011;479;53.514;9.994;2023-04-01T02:05:56;8.50;;;4.23;;
980;SDS011;479;53.514;9.994;2023-04-01T02:08:28;2.63;;;2.40;;
980;SDS011;479;53.514;9.994;2023-04-01T02:11:02;5.13;;;3.20;;
980;SDS011;479;53.514;9.994;2023-04-01T02:13:38;3.33;;;2.93;;
980;SDS011;479;53.514;9.994;2023-04-01T02:16:11;3.73;;;3.30;;
980;SDS011;479;53.514;9.994;2023-04-01T02:18:41;3.87;;;3.40;;
980;SDS011;479;53.514;9.994;2023-04-01T02:21:10;7.10;;;5.00;;
980;SDS011;479;53.514;9.994;2023-04-01T02:23:39;4.03;;;3.27;;
980;SDS011;479;53.514;9.994;2023-04-01T02:26:07;4.00;;;3.60;;
980;SDS011;479;53.514;9.994;2023-04-01T02:28:36;3.73;;;3.40;;
980;SDS011;479;53.514;9.994;2023-04-01T02:31:05;3.57;;;2.83;;
980;SDS011;479;53.514;9.994;2023-04-01T02:33:34;5.20;;;3.10;;
980;SDS011;479;53.514;9.994;2023-04-01T02:36:01;4.33;;;3.93;;
980;SDS011;479;53.514;9.994;2023-04-01T02:38:28;4.60;;;3.33;;
980;SDS011;479;53.514;9.994;2023-04-01T02:40:58;7.43;;;3.77;;
980;SDS011;479;53.514;9.994;2023-04-01T02:43:26;4.03;;;3.10;;
980;SDS011;479;53.514;9.994;2023-04-01T02:45:55;5.07;;;3.47;;
980;SDS011;479;53.514;9.994;2023-04-01T02:48:22;7.00;;;4.30;;
980;SDS011;479;53.514;9.994;2023-04-01T02:50:49;3.93;;;3.53;;
980;SDS011;479;53.514;9.994;2023-04-01T02:53:17;5.07;;;3.63;;
980;SDS011;479;53.514;9.994;2023-04-01T02:55:43;9.53;;;4.13;;
980;SDS011;479;53.514;9.994;2023-04-01T02:58:12;4.57;;;4.17;;
980;SDS011;479;53.514;9.994;2023-04-01T03:00:39;4.37;;;3.03;;
980;SDS011;479;53.514;9.994;2023-04-01T03:03:06;4.63;;;3.57;;
980;SDS011;479;53.514;9.994;2023-04-01T03:05:33;4.20;;;3.80;;
980;SDS011;479;53.514;9.994;2023-04-01T03:08:00;6.17;;;4.00;;
980;SDS011;479;53.514;9.994;2023-04-01T03:10:27;5.53;;;2.80;;
980;SDS011;479;53.514;9.994;2023-04-01T03:12:54;6.70;;;3.00;;
980;SDS011;479;53.514;9.994;2023-04-01T03:15:23;5.27;;;4.00;;
980;SDS011;479;53.514;9.994;2023-04-01T03:17:50;5.03;;;3.77;;
980;SDS011;479;53.514;9.994;2023-04-01T03:20:17;4.60;;;2.90;;
980;SDS011;479;53.514;9.994;2023-04-01T03:22:44;3.80;;;3.00;;
980;SDS011;479;53.514;9.994;2023-04-01T03:25:12;6.33;;;2.67;;
980;SDS011;479;53.514;9.994;2023-04-01T03:27:39;3.43;;;3.13;;
980;SDS011;479;53.514;9.994;2023-04-01T03:30:08;8.43;;;3.07;;
980;SDS011;479;53.514;9.994;2023-04-01T03:32:44;8.23;;;3.37;;
980;SDS011;479;53.514;9.994;2023-04-01T03:35:12;4.33;;;3.93;;
980;SDS011;479;53.514;9.994;2023-04-01T03:37:39;7.33;;;3.77;;
980;SDS011;479;53.514;9.994;2023-04-01T03:40:07;4.00;;;2.83;;
980;SDS011;479;53.514;9.994;2023-04-01T03:42:34;4.47;;;3.37;;
980;SDS011;479;53.514;9.994;2023-04-01T03:45:02;3.47;;;2.90;;
980;SDS011;479;53.514;9.994;2023-04-01T03:47:29;3.73;;;3.30;;
980;SDS011;479;53.514;9.994;2023-04-01T03:49:57;5.27;;;3.47;;
980;SDS011;479;53.514;9.994;2023-04-01T03:52:25;3.57;;;3.27;;
980;SDS011;479;53.514;9.994;2023-04-01T03:54:52;3.17;;;2.87;;
980;SDS011;479;53.514;9.994;2023-04-01T03:57:19;3.70;;;3.40;;
980;SDS011;479;53.514;9.994;2023-04-01T03:59:46;10.10;;;5.90;;
980;SDS011;479;53.514;9.994;2023-04-01T04:02:13;5.10;;;3.23;;
980;SDS011;479;53.514;9.994;2023-04-01T04:04:41;4.13;;;3.30;;
980;SDS011;479;53.514;9.994;2023-04-01T04:07:09;3.57;;;2.70;;
980;SDS011;479;53.514;9.994;2023-04-01T04:09:56;4.40;;;3.33;;
980;SDS011;479;53.514;9.994;2023-04-01T04:12:23;6.43;;;3.20;;
980;SDS011;479;53.514;9.994;2023-04-01T04:14:50;3.43;;;3.03;;
980;SDS011;479;53.514;9.994;2023-04-01T04:17:17;6.57;;;2.63;;
980;SDS011;479;53.514;9.994;2023-04-01T04:19:44;7.40;;;4.40;;
980;SDS011;479;53.514;9.994;2023-04-01T04:22:13;5.43;;;4.10;;
980;SDS011;479;53.514;9.994;2023-04-01T04:24:40;3.87;;;2.90;;
980;SDS011;479;53.514;9.994;2023-04-01T04:27:10;5.60;;;3.50;;
980;SDS011;479;53.514;9.994;2023-04-01T04:29:47;8.60;;;6.03;;
980;SDS011;479;53.514;9.994;2023-04-01T04:32:14;4.73;;;4.20;;
980;SDS011;479;53.514;9.994;2023-04-01T04:34:41;4.70;;;3.37;;
980;SDS011;479;53.514;9.994;2023-04-01T04:37:08;6.60;;;3.30;;
980;SDS011;479;53.514;9.994;2023-04-01T04:39:37;7.40;;;3.73;;
980;SDS011;479;53.514;9.994;2023-04-01T04:42:05;8.30;;;5.00;;
980;SDS011;479;53.514;9.994;2023-04-01T04:44:32;3.60;;;3.27;;
980;SDS011;479;53.514;9.994;2023-04-01T04:46:59;3.63;;;3.33;;
980;SDS011;479;53.514;9.994;2023-04-01T04:49:27;3.83;;;2.90;;
980;SDS011;479;53.514;9.994;2023-04-01T04:51:54;4.30;;;3.53;;
980;SDS011;479;53.514;9.994;2023-04-01T04:54:24;7.07;;;2.70;;
980;SDS011;479;53.514;9.994;2023-04-01T04:56:58;3.20;;;2.90;;
980;SDS011;479;53.514;9.994;2023-04-01T04:59:27;5.80;;;3.53;;
980;SDS011;479;53.514;9.994;2023-04-01T05:02:13;7.60;;;5.27;;
980;SDS011;479;53.514;9.994;2023-04-01T05:04:40;4.83;;;3.90;;
980;SDS011;479;53.514;9.994;2023-04-01T05:07:10;6.70;;;4.53;;
980;SDS011;479;53.514;9.994;2023-04-01T05:09:37;4.80;;;3.70;;
980;SDS011;479;53.514;9.994;2023-04-01T05:12:06;3.30;;;2.80;;
980;SDS011;479;53.514;9.994;2023-04-01T05:14:53;10.33;;;4.20;;
980;SDS011;479;53.514;9.994;2023-04-01T05:17:21;3.07;;;2.77;;
980;SDS011;479;53.514;9.994;2023-04-01T05:19:48;9.67;;;3.63;;
980;SDS011;479;53.514;9.994;2023-04-01T05:22:15;4.60;;;3.47;;
980;SDS011;479;53.514;9.994;2023-04-01T05:24:42;10.60;;;3.63;;
980;SDS011;479;53.514;9.994;2023-04-01T05:27:12;4.90;;;3.70;;
980;SDS011;479;53.514;9.994;2023-04-01T05:29:40;5.10;;;3.90;;
980;SDS011;479;53.514;9.994;2023-04-01T05:32:12;4.83;;;4.07;;
980;SDS011;479;53.514;9.994;2023-04-01T05:34:40;8.80;;;3.83;;
980;SDS011;479;53.514;9.994;2023-04-01T05:37:07;7.97;;;3.90;;
980;SDS011;479;53.514;9.994;2023-04-01T05:39:35;4.13;;;3.80;;
980;SDS011;479;53.514;9.994;2023-04-01T05:42:04;7.10;;;4.00;;
980;SDS011;479;53.514;9.994;2023-04-01T05:44:34;4.07;;;3.43;;
980;SDS011;479;53.514;9.994;2023-04-01T05:47:01;4.70;;;3.77;;
980;SDS011;479;53.514;9.994;2023-04-01T05:49:29;3.40;;;3.10;;
980;SDS011;479;53.514;9.994;2023-04-01T05:51:56;4.07;;;3.50;;
980;SDS011;479;53.514;9.994;2023-04-01T05:54:24;5.43;;;3.40;;
980;SDS011;479;53.514;9.994;2023-04-01T05:56:51;4.33;;;3.93;;
980;SDS011;479;53.514;9.994;2023-04-01T05:59:19;2.03;;;1.93;;
980;SDS011;479;53.514;9.994;2023-04-01T06:01:47;1.23;;;0.97;;
980;SDS011;479;53.514;9.994;2023-04-01T06:04:15;0.60;;;0.60;;
980;SDS011;479;53.514;9.994;2023-04-01T06:06:44;0.73;;;0.73;;
980;SDS011;479;53.514;9.994;2023-04-01T06:09:13;1.07;;;1.07;;
980;SDS011;479;53.514;9.994;2023-04-01T06:11:51;0.90;;;0.90;;
980;SDS011;479;53.514;9.994;2023-04-01T06:14:38;0.80;;;0.80;;
980;SDS011;479;53.514;9.994;2023-04-01T06:17:19;1.23;;;1.10;;
980;SDS011;479;53.514;9.994;2023-04-01T06:19:57;0.87;;;0.87;;
980;SDS011;479;53.514;9.994;2023-04-01T06:25:25;1.13;;;1.13;;
980;SDS011;479;53.514;9.994;2023-04-01T06:28:07;1.20;;;1.10;;
980;SDS011;479;53.514;9.994;2023-04-01T06:31:03;1.10;;;1.10;;
980;SDS011;479;53.514;9.994;2023-04-01T06:33:48;0.80;;;0.80;;
980;SDS011;479;53.514;9.994;2023-04-01T06:36:35;0.65;;;0.65;;
980;SDS011;479;53.514;9.994;2023-04-01T06:39:16;0.50;;;0.50;;
980;SDS011;479;53.514;9.994;2023-04-01T06:42:01;1.08;;;1.05;;
980;SDS011;479;53.514;9.994;2023-04-01T06:44:49;0.70;;;0.70;;
980;SDS011;479;53.514;9.994;2023-04-01T06:47:45;1.50;;;1.50;;
980;SDS011;479;53.514;9.994;2023-04-01T06:50:44;0.90;;;0.90;;
980;SDS011;479;53.514;9.994;2023-04-01T06:53:38;0.90;;;0.90;;
980;SDS011;479;53.514;9.994;2023-04-01T06:56:30;1.25;;;1.05;;
980;SDS011;479;53.514;9.994;2023-04-01T06:59:08;0.60;;;0.60;;
980;SDS011;479;53.514;9.994;2023-04-01T07:01:39;0.73;;;0.73;;
980;SDS011;479;53.514;9.994;2023-04-01T07:04:09;1.05;;;1.02;;
980;SDS011;479;53.514;9.994;2023-04-01T07:06:42;2.20;;;1.65;;
980;SDS011;479;53.514;9.994;2023-04-01T07:09:14;0.68;;;0.68;;
980;SDS011;479;53.514;9.994;2023-04-01T07:12:06;1.55;;;1.10;;
980;SDS011;479;53.514;9.994;2023-04-01T07:15:00;1.40;;;0.98;;
980;SDS011;479;53.514;9.994;2023-04-01T07:17:32;1.65;;;0.80;;
980;SDS011;479;53.514;9.994;2023-04-01T07:20:03;1.63;;;1.20;;
980;SDS011;479;53.514;9.994;2023-04-01T07:22:40;1.60;;;1.50;;
980;SDS011;479;53.514;9.994;2023-04-01T07:25:25;1.00;;;1.00;;
980;SDS011;479;53.514;9.994;2023-04-01T07:28:15;0.80;;;0.80;;
980;SDS011;479;53.514;9.994;2023-04-01T07:30:48;1.08;;;1.08;;
980;SDS011;479;53.514;9.994;2023-04-01T07:33:22;3.40;;;1.90;;
980;SDS011;479;53.514;9.994;2023-04-01T07:35:56;0.52;;;0.52;;
980;SDS011;479;53.514;9.994;2023-04-01T07:38:34;1.30;;;1.20;;
980;SDS011;479;53.514;9.994;2023-04-01T07:41:12;1.10;;;1.10;;
980;SDS011;479;53.514;9.994;2023-04-01T07:43:48;0.82;;;0.82;;
980;SDS011;479;53.514;9.994;2023-04-01T07:46:33;2.92;;;1.70;;
980;SDS011;479;53.514;9.994;2023-04-01T07:49:14;1.80;;;1.00;;
980;SDS011;479;53.514;9.994;2023-04-01T07:51:44;1.27;;;1.17;;
980;SDS011;479;53.514;9.994;2023-04-01T07:54:21;0.73;;;0.73;;
980;SDS011;479;53.514;9.994;2023-04-01T07:56:54;1.38;;;1.20;;
980;SDS011;479;53.514;9.994;2023-04-01T07:59:44;1.65;;;1.55;;
980;SDS011;479;53.514;9.994;2023-04-01T08:02:27;1.00;;;0.93;;
980;SDS011;479;53.514;9.994;2023-04-01T08:05:08;2.95;;;1.10;;
980;SDS011;479;53.514;9.994;2023-04-01T08:07:47;1.52;;;1.20;;
980;SDS011;479;53.514;9.994;2023-04-01T08:10:46;1.05;;;0.93;;
980;SDS011;479;53.514;9.994;2023-04-01T08:13:37;0.98;;;0.98;;
980;SDS011;479;53.514;9.994;2023-04-01T08:16:45;0.70;;;0.70;;
980;SDS011;479;53.514;9.994;2023-04-01T08:19:43;0.60;;;0.60;;
980;SDS011;479;53.514;9.994;2023-04-01T08:22:20;2.35;;;0.93;;
980;SDS011;479;53.514;9.994;2023-04-01T08:24:51;0.75;;;0.75;;
980;SDS011;479;53.514;9.994;2023-04-01T08:27:24;1.08;;;1.08;;
980;SDS011;479;53.514;9.994;2023-04-01T08:29:59;1.88;;;1.77;;
980;SDS011;479;53.514;9.994;2023-04-01T08:32:35;0.80;;;0.80;;
980;SDS011;479;53.514;9.994;2023-04-01T08:35:07;1.00;;;1.00;;
980;SDS011;479;53.514;9.994;2023-04-01T08:37:43;0.63;;;0.63;;
980;SDS011;479;53.514;9.994;2023-04-01T08:43:16;0.70;;;0.70;;
980;SDS011;479;53.514;9.994;2023-04-01T08:45:56;0.80;;;0.80;;
980;SDS011;479;53.514;9.994;2023-04-01T08:48:41;10.32;;;6.22;;
980;SDS011;479;53.514;9.994;2023-04-01T08:54:27;0.80;;;0.80;;
980;SDS011;479;53.514;9.994;2023-04-01T08:57:38;0.80;;;0.80;;
980;SDS011;479;53.514;9.994;2023-04-01T09:00:49;2.22;;;1.27;;
980;SDS011;479;53.514;9.994;2023-04-01T09:03:37;0.93;;;0.90;;
980;SDS011;479;53.514;9.994;2023-04-01T09:06:28;0.93;;;0.90;;
980;SDS011;479;53.514;9.994;2023-04-01T09:15:27;0.70;;;0.70;;
980;SDS011;479;53.514;9.994;2023-04-01T09:18:11;0.90;;;0.90;;
980;SDS011;479;53.514;9.994;2023-04-01T09:26:58;0.65;;;0.65;;
980;SDS011;479;53.514;9.994;2023-04-01T09:29:36;1.42;;;1.33;;
980;SDS011;479;53.514;9.994;2023-04-01T09:32:25;1.08;;;1.08;;
980;SDS011;479;53.514;9.994;2023-04-01T09:35:24;1.30;;;1.20;;
980;SDS011;479;53.514;9.994;2023-04-01T09:38:00;1.20;;;1.08;;
980;SDS011;479;53.514;9.994;2023-04-01T09:40:45;0.85;;;0.85;;
980;SDS011;479;53.514;9.994;2023-04-01T09:43:34;0.93;;;0.93;;
980;SDS011;479;53.514;9.994;2023-04-01T09:46:19;0.60;;;0.60;;
980;SDS011;479;53.514;9.994;2023-04-01T09:48:58;1.15;;;0.90;;
980;SDS011;479;53.514;9.994;2023-04-01T09:51:43;0.60;;;0.60;;
980;SDS011;479;53.514;9.994;2023-04-01T09:54:25;1.63;;;1.13;;
980;SDS011;479;53.514;9.994;2023-04-01T09:57:09;1.40;;;0.95;;
980;SDS011;479;53.514;9.994;2023-04-01T10:00:19;0.75;;;0.75;;
980;SDS011;479;53.514;9.994;2023-04-01T10:03:10;3.25;;;2.42;;
980;SDS011;479;53.514;9.994;2023-04-01T10:06:03;1.27;;;1.17;;
980;SDS011;479;53.514;9.994;2023-04-01T10:15:19;0.70;;;0.70;;
980;SDS011;479;53.514;9.994;2023-04-01T10:24:22;1.30;;;0.80;;
980;SDS011;479;53.514;9.994;2023-04-01T10:27:10;0.50;;;0.50;;
980;SDS011;479;53.514;9.994;2023-04-01T10:30:05;0.73;;;0.73;;
980;SDS011;479;53.514;9.994;2023-04-01T10:33:02;0.40;;;0.40;;
980;SDS011;479;53.514;9.994;2023-04-01T10:39:17;1.27;;;1.25;;
980;SDS011;479;53.514;9.994;2023-04-01T10:45:53;1.10;;;1.05;;
980;SDS011;479;53.514;9.994;2023-04-01T10:48:48;0.70;;;0.70;;
980;SDS011;479;53.514;9.994;2023-04-01T10:51:56;2.72;;;1.52;;
980;SDS011;479;53.514;9.994;2023-04-01T10:55:04;1.15;;;1.15;;
980;SDS011;479;53.514;9.994;2023-04-01T10:58:27;2.47;;;2.28;;
980;SDS011;479;53.514;9.994;2023-04-01T11:01:49;0.50;;;0.50;;
980;SDS011;479;53.514;9.994;2023-04-01T11:08:29;0.40;;;0.40;;
980;SDS011;479;53.514;9.994;2023-04-01T11:11:41;0.90;;;0.90;;
980;SDS011;479;53.514;9.994;2023-04-01T11:14:38;0.85;;;0.82;;
980;SDS011;479;53.514;9.994;2023-04-01T11:20:41;0.88;;;0.50;;
980;SDS011;479;53.514;9.994;2023-04-01T11:26:20;0.90;;;0.90;;
980;SDS011;479;53.514;9.994;2023-04-01T11:29:28;0.57;;;0.57;;
980;SDS011;479;53.514;9.994;2023-04-01T11:32:23;0.77;;;0.77;;
980;SDS011;479;53.514;9.994;2023-04-01T11:35:13;0.77;;;0.77;;
980;SDS011;479;53.514;9.994;2023-04-01T11:38:01;0.80;;;0.80;;
980;SDS011;479;53.514;9.994;2023-04-01T11:40:44;2.75;;;2.38;;
980;SDS011;479;53.514;9.994;2023-04-01T11:43:37;0.85;;;0.85;;
980;SDS011;479;53.514;9.994;2023-04-01T11:46:31;1.73;;;1.40;;
980;SDS011;479;53.514;9.994;2023-04-01T11:49:21;1.00;;;0.90;;
980;SDS011;479;53.514;9.994;2023-04-01T11:52:16;0.73;;;0.73;;
980;SDS011;479;53.514;9.994;2023-04-01T11:55:02;0.70;;;0.70;;
980;SDS011;479;53.514;9.994;2023-04-01T11:57:43;0.80;;;0.80;;
980;SDS011;479;53.514;9.994;2023-04-01T12:00:20;1.20;;;1.20;;
980;SDS011;479;53.514;9.994;2023-04-01T12:03:02;1.30;;;1.00;;
980;SDS011;479;53.514;9.994;2023-04-01T12:05:54;2.30;;;1.70;;
980;SDS011;479;53.514;9.994;2023-04-01T12:08:33;1.23;;;1.13;;
980;SDS011;479;53.514;9.994;2023-04-01T12:11:12;1.65;;;1.55;;
980;SDS011;479;53.514;9.994;2023-04-01T12:13:45;2.20;;;2.00;;
980;SDS011;479;53.514;9.994;2023-04-01T12:16:21;1.13;;;1.13;;
980;SDS011;479;53.514;9.994;2023-04-01T12:18:57;1.45;;;1.35;;
980;SDS011;479;53.514;9.994;2023-04-01T12:21:32;2.60;;;2.25;;
980;SDS011;479;53.514;9.994;2023-04-01T12:24:06;1.50;;;1.40;;
980;SDS011;479;53.514;9.994;2023-04-01T12:29:47;1.48;;;0.90;;
980;SDS011;479;53.514;9.994;2023-04-01T12:32:25;1.67;;;1.58;;
980;SDS011;479;53.514;9.994;2023-04-01T12:35:10;1.45;;;1.35;;
980;SDS011;479;53.514;9.994;2023-04-01T12:37:47;1.83;;;1.73;;
980;SDS011;479;53.514;9.994;2023-04-01T12:40:31;7.50;;;1.45;;
980;SDS011;479;53.514;9.994;2023-04-01T12:43:27;3.70;;;2.65;;
980;SDS011;479;53.514;9.994;2023-04-01T12:46:03;1.75;;;1.65;;
980;SDS011;479;53.514;9.994;2023-04-01T12:48:41;2.10;;;1.58;;
980;SDS011;479;53.514;9.994;2023-04-01T12:51:29;3.67;;;1.75;;
980;SDS011;479;53.514;9.994;2023-04-01T12:54:19;2.33;;;2.08;;
980;SDS011;479;53.514;9.994;2023-04-01T12:57:17;1.90;;;1.80;;
980;SDS011;479;53.514;9.994;2023-04-01T12:59:58;2.05;;;1.70;;
980;SDS011;479;53.514;9.994;2023-04-01T13:02:41;1.23;;;1.15;;
980;SDS011;479;53.514;9.994;2023-04-01T13:05:31;0.95;;;0.95;;
980;SDS011;479;53.514;9.994;2023-04-01T13:08:13;1.35;;;1.25;;
980;SDS011;479;53.514;9.994;2023-04-01T13:10:58;1.60;;;1.50;;
980;SDS011;479;53.514;9.994;2023-04-01T13:13:50;1.50;;;1.40;;
980;SDS011;479;53.514;9.994;2023-04-01T13:16:46;1.67;;;1.58;;
980;SDS011;479;53.514;9.994;2023-04-01T13:19:19;1.67;;;1.58;;
980;SDS011;479;53.514;9.994;2023-04-01T13:21:53;2.03;;;1.92;;
980;SDS011;479;53.514;9.994;2023-04-01T13:24:36;1.30;;;1.25;;
980;SDS011;479;53.514;9.994;2023-04-01T13:27:12;2.08;;;1.88;;
980;SDS011;479;53.514;9.994;2023-04-01T13:29:45;3.38;;;1.75;;
980;SDS011;479;53.514;9.994;2023-04-01T13:32:21;2.40;;;2.20;;
980;SDS011;479;53.514;9.994;2023-04-01T13:34:59;1.63;;;1.27;;
980;SDS011;479;53.514;9.994;2023-04-01T13:37:44;2.78;;;2.03;;
980;SDS011;479;53.514;9.994;2023-04-01T13:43:19;1.50;;;1.40;;
980;SDS011;479;53.514;9.994;2023-04-01T13:48:52;0.95;;;0.95;;
980;SDS011;479;53.514;9.994;2023-04-01T13:57:32;1.58;;;1.48;;
980;SDS011;479;53.514;9.994;2023-04-01T14:00:17;1.13;;;1.13;;
980;SDS011;479;53.514;9.994;2023-04-01T14:02:57;2.22;;;1.80;;
980;SDS011;479;53.514;9.994;2023-04-01T14:05:47;2.00;;;1.90;;
980;SDS011;479;53.514;9.994;2023-04-01T14:08:23;1.92;;;1.83;;
980;SDS011;479;53.514;9.994;2023-04-01T14:11:03;2.55;;;1.85;;
980;SDS011;479;53.514;9.994;2023-04-01T14:13:40;1.73;;;1.60;;
980;SDS011;479;53.514;9.994;2023-04-01T14:16:25;2.45;;;2.03;;
980;SDS011;479;53.514;9.994;2023-04-01T14:19:20;3.80;;;3.53;;
980;SDS011;479;53.514;9.994;2023-04-01T14:21:58;3.55;;;3.08;;
980;SDS011;479;53.514;9.994;2023-04-01T14:24:42;1.73;;;1.63;;
980;SDS011;479;53.514;9.994;2023-04-01T14:27:26;4.35;;;2.40;;
980;SDS011;479;53.514;9.994;2023-04-01T14:30:11;1.65;;;1.55;;
980;SDS011;479;53.514;9.994;2023-04-01T14:32:58;1.73;;;1.63;;
980;SDS011;479;53.514;9.994;2023-04-01T14:35:38;3.00;;;2.60;;
980;SDS011;479;53.514;9.994;2023-04-01T14:38:29;2.72;;;2.03;;
980;SDS011;479;53.514;9.994;2023-04-01T14:41:16;3.05;;;1.33;;
980;SDS011;479;53.514;9.994;2023-04-01T14:43:53;2.05;;;1.90;;
980;SDS011;479;53.514;9.994;2023-04-01T14:49:52;1.45;;;1.35;;
980;SDS011;479;53.514;9.994;2023-04-01T14:52:31;1.92;;;1.73;;
980;SDS011;479;53.514;9.994;2023-04-01T14:55:00;1.65;;;1.55;;
980;SDS011;479;53.514;9.994;2023-04-01T14:57:29;2.30;;;2.00;;
980;SDS011;479;53.514;9.994;2023-04-01T14:59:59;1.33;;;1.23;;
980;SDS011;479;53.514;9.994;2023-04-01T15:02:33;1.48;;;1.38;;
980;SDS011;479;53.514;9.994;2023-04-01T15:05:15;2.55;;;1.23;;
980;SDS011;479;53.514;9.994;2023-04-01T15:07:57;1.85;;;1.75;;
980;SDS011;479;53.514;9.994;2023-04-01T15:10:48;1.73;;;1.63;;
980;SDS011;479;53.514;9.994;2023-04-01T15:13:49;1.95;;;1.85;;
980;SDS011;479;53.514;9.994;2023-04-01T15:16:27;2.65;;;2.20;;
980;SDS011;479;53.514;9.994;2023-04-01T15:19:04;2.80;;;2.00;;
980;SDS011;479;53.514;9.994;2023-04-01T15:21:46;5.88;;;2.83;;
980;SDS011;479;53.514;9.994;2023-04-01T15:24:37;1.85;;;1.75;;
980;SDS011;479;53.514;9.994;2023-04-01T15:27:15;1.65;;;1.55;;
980;SDS011;479;53.514;9.994;2023-04-01T15:32:55;6.25;;;3.78;;
980;SDS011;479;53.514;9.994;2023-04-01T15:35:34;5.40;;;3.47;;
980;SDS011;479;53.514;9.994;2023-04-01T15:38:14;2.42;;;1.70;;
980;SDS011;479;53.514;9.994;2023-04-01T15:40:51;1.88;;;1.77;;
980;SDS011;479;53.514;9.994;2023-04-01T15:43:27;4.40;;;2.28;;
980;SDS011;479;53.514;9.994;2023-04-01T15:46:09;2.95;;;2.65;;
980;SDS011;479;53.514;9.994;2023-04-01T15:49:04;1.10;;;1.10;;
980;SDS011;479;53.514;9.994;2023-04-01T15:51:45;3.30;;;2.53;;
980;SDS011;479;53.514;9.994;2023-04-01T15:54:49;2.83;;;2.30;;
980;SDS011;479;53.514;9.994;2023-04-01T15:57:48;1.50;;;1.40;;
980;SDS011;479;53.514;9.994;2023-04-01T16:00:33;1.60;;;1.50;;
980;SDS011;479;53.514;9.994;2023-04-01T16:03:17;2.65;;;2.45;;
980;SDS011;479;53.514;9.994;2023-04-01T16:05:54;1.45;;;1.45;;
980;SDS011;479;53.514;9.994;2023-04-01T16:08:41;2.35;;;2.13;;
980;SDS011;479;53.514;9.994;2023-04-01T16:11:19;4.53;;;2.88;;
980;SDS011;479;53.514;9.994;2023-04-01T16:14:01;3.65;;;3.35;;
980;SDS011;479;53.514;9.994;2023-04-01T16:19:33;2.63;;;2.30;;
980;SDS011;479;53.514;9.994;2023-04-01T16:22:17;2.60;;;2.40;;
980;SDS011;479;53.514;9.994;2023-04-01T16:24:51;1.70;;;1.60;;
980;SDS011;479;53.514;9.994;2023-04-01T16:27:24;1.88;;;1.67;;
980;SDS011;479;53.514;9.994;2023-04-01T16:29:59;2.75;;;2.55;;
980;SDS011;479;53.514;9.994;2023-04-01T16:32:31;8.57;;;2.67;;
980;SDS011;479;53.514;9.994;2023-04-01T16:35:16;2.80;;;2.60;;
980;SDS011;479;53.514;9.994;2023-04-01T16:37:52;4.07;;;2.15;;
980;SDS011;479;53.514;9.994;2023-04-01T16:40:25;2.03;;;1.92;;
980;SDS011;479;53.514;9.994;2023-04-01T16:43:10;2.47;;;2.17;;
980;SDS011;479;53.514;9.994;2023-04-01T16:45:43;5.20;;;3.95;;
980;SDS011;479;53.514;9.994;2023-04-01T16:48:18;1.52;;;1.42;;
980;SDS011;479;53.514;9.994;2023-04-01T16:50:51;6.20;;;2.95;;
980;SDS011;479;53.514;9.994;2023-04-01T16:53:25;2.17;;;1.77;;
980;SDS011;479;53.514;9.994;2023-04-01T16:56:04;1.95;;;1.85;;
980;SDS011;479;53.514;9.994;2023-04-01T16:58:37;2.85;;;2.65;;
980;SDS011;479;53.514;9.994;2023-04-01T17:01:11;2.55;;;2.35;;
980;SDS011;479;53.514;9.994;2023-04-01T17:03:42;1.60;;;1.00;;
980;SDS011;479;53.514;9.994;2023-04-01T17:06:13;8.52;;;3.60;;
980;SDS011;479;53.514;9.994;2023-04-01T17:09:02;6.47;;;2.35;;
980;SDS011;479;53.514;9.994;2023-04-01T17:11:43;2.47;;;1.45;;
980;SDS011;479;53.514;9.994;2023-04-01T17:14:18;5.47;;;2.33;;
980;SDS011;479;53.514;9.994;2023-04-01T17:19:56;4.80;;;2.22;;
980;SDS011;479;53.514;9.994;2023-04-01T17:22:43;2.58;;;2.47;;
980;SDS011;479;53.514;9.994;2023-04-01T17:25:21;2.42;;;2.08;;
980;SDS011;479;53.514;9.994;2023-04-01T17:27:59;3.15;;;2.45;;
980;SDS011;479;53.514;9.994;2023-04-01T17:30:36;1.95;;;1.85;;
980;SDS011;479;53.514;9.994;2023-04-01T17:33:22;1.65;;;1.55;;
980;SDS011;479;53.514;9.994;2023-04-01T17:36:04;6.68;;;2.83;;
980;SDS011;479;53.514;9.994;2023-04-01T17:38:51;2.60;;;2.40;;
980;SDS011;479;53.514;9.994;2023-04-01T17:41:29;2.30;;;2.08;;
980;SDS011;479;53.514;9.994;2023-04-01T17:44:08;1.25;;;1.23;;
980;SDS011;479;53.514;9.994;2023-04-01T17:46:49;2.85;;;2.65;;
980;SDS011;479;53.514;9.994;2023-04-01T17:49:39;2.63;;;2.42;;
980;SDS011;479;53.514;9.994;2023-04-01T17:52:13;2.65;;;1.70;;
980;SDS011;479;53.514;9.994;2023-04-01T17:54:50;3.28;;;2.40;;
980;SDS011;479;53.514;9.994;2023-04-01T17:57:27;4.28;;;3.40;;
980;SDS011;479;53.514;9.994;2023-04-01T18:00:14;2.60;;;2.40;;
980;SDS011;479;53.514;9.994;2023-04-01T18:02:47;3.95;;;2.97;;
980;SDS011;479;53.514;9.994;2023-04-01T18:05:25;1.88;;;1.77;;
980;SDS011;479;53.514;9.994;2023-04-01T18:08:15;2.40;;;2.20;;
980;SDS011;479;53.514;9.994;2023-04-01T18:10:54;1.85;;;1.23;;
980;SDS011;479;53.514;9.994;2023-04-01T18:13:36;4.63;;;4.22;;
980;SDS011;479;53.514;9.994;2023-04-01T18:16:21;3.00;;;2.75;;
980;SDS011;479;53.514;9.994;2023-04-01T18:18:58;0.70;;;0.57;;